Time,TemperatureF,DewpointF,PressureIn,WindDirection,WindDirectionDegrees,WindSpeedMPH,WindSpeedGustMPH,Humidity,HourlyPrecipIn,Conditions,Clouds,dailyrainin,SoftwareType,DateUTC
2013-05-28 00:06:00,42.4,39.1,30.15,NNE,22,0.0,-999.0,88,-99.99,,,0.00,Acu-Link.com,2013-05-28 04:06:00,
2013-05-28 00:21:00,42.1,38.8,30.15,ESE,112,0.0,-999.0,88,-99.99,,,0.00,Acu-Link.com,2013-05-28 04:21:00,
2013-05-28 00:36:00,41.5,38.8,30.15,East,90,0.0,-999.0,90,-99.99,,,0.00,Acu-Link.com,2013-05-28 04:36:00,
2013-05-28 00:51:00,41.0,38.3,30.16,NE,45,0.0,-999.0,90,-99.99,,,0.00,Acu-Link.com,2013-05-28 04:51:00,
2013-05-28 01:07:00,40.5,37.8,30.16,NE,45,0.0,-999.0,90,-99.99,,,0.00,Acu-Link.com,2013-05-28 05:07:00,
2013-05-28 01:22:00,40.1,37.4,30.17,East,90,0.0,-999.0,90,-99.99,,,0.00,Acu-Link.com,2013-05-28 05:22:00,
2013-05-28 01:37:00,39.7,37.3,30.17,North,0,0.0,-999.0,91,-99.99,,,0.00,Acu-Link.com,2013-05-28 05:37:00,
2013-05-28 01:53:00,39.6,37.5,30.17,NNE,22,0.0,-999.0,92,-99.99,,,0.00,Acu-Link.com,2013-05-28 05:53:00,
2013-05-28 02:08:00,39.2,37.1,30.17,SSW,202,0.0,-999.0,92,-99.99,,,0.00,Acu-Link.com,2013-05-28 06:08:00,
2013-05-28 02:23:00,38.8,36.7,30.17,NNE,22,0.0,-999.0,92,-99.99,,,0.00,Acu-Link.com,2013-05-28 06:23:00,
2013-05-28 02:38:00,38.5,36.4,30.17,ESE,112,0.0,-999.0,92,-99.99,,,0.00,Acu-Link.com,2013-05-28 06:38:00,
2013-05-28 02:54:00,37.9,35.8,30.16,NNE,22,0.0,-999.0,92,-99.99,,,0.00,Acu-Link.com,2013-05-28 06:54:00,
2013-05-28 03:09:00,37.8,35.7,30.17,NNW,337,0.0,-999.0,92,-99.99,,,0.00,Acu-Link.com,2013-05-28 07:09:00,
2013-05-28 03:24:00,37.2,35.1,30.16,NNW,337,0.0,-999.0,92,-99.99,,,0.00,Acu-Link.com,2013-05-28 07:24:00,
2013-05-28 03:39:00,36.9,34.8,30.16,NNE,22,0.0,-999.0,92,-99.99,,,0.00,Acu-Link.com,2013-05-28 07:39:00,
2013-05-28 03:55:00,36.5,34.4,30.17,ENE,67,0.0,-999.0,92,-99.99,,,0.00,Acu-Link.com,2013-05-28 07:55:00,
2013-05-28 04:10:00,36.3,34.2,30.17,ESE,112,0.0,-999.0,92,-99.99,,,0.00,Acu-Link.com,2013-05-28 08:10:00,
2013-05-28 04:25:00,36.1,34.0,30.17,NE,45,0.0,-999.0,92,-99.99,,,0.00,Acu-Link.com,2013-05-28 08:25:00,
2013-05-28 04:40:00,36.0,34.2,30.17,ESE,112,0.0,-999.0,93,-99.99,,,0.00,Acu-Link.com,2013-05-28 08:40:00,
2013-05-28 04:56:00,35.6,33.8,30.18,ESE,112,0.0,-999.0,93,-99.99,,,0.00,Acu-Link.com,2013-05-28 08:56:00,
2013-05-28 05:11:00,35.4,33.6,30.18,ENE,67,0.0,-999.0,93,-99.99,,,0.00,Acu-Link.com,2013-05-28 09:11:00,
2013-05-28 05:26:00,35.2,33.4,30.19,NE,45,0.0,-999.0,93,-99.99,,,0.00,Acu-Link.com,2013-05-28 09:26:00,
2013-05-28 05:41:00,35.2,33.4,30.19,West,270,0.0,-999.0,93,-99.99,,,0.00,Acu-Link.com,2013-05-28 09:41:00,
2013-05-28 05:57:00,35.4,33.6,30.19,East,90,0.0,-999.0,93,-99.99,,,0.00,Acu-Link.com,2013-05-28 09:57:00,
2013-05-28 06:12:00,35.8,34.0,30.20,ESE,112,0.0,-999.0,93,-99.99,,,0.00,Acu-Link.com,2013-05-28 10:12:00,
2013-05-28 06:27:00,36.1,34.3,30.20,NW,315,0.0,-999.0,93,-99.99,,,0.00,Acu-Link.com,2013-05-28 10:27:00,
2013-05-28 06:42:00,37.2,35.6,30.20,NE,45,0.0,-999.0,94,-99.99,,,0.00,Acu-Link.com,2013-05-28 10:42:00,
2013-05-28 06:58:00,39.2,37.9,30.21,WNW,292,1.7,-999.0,95,-99.99,,,0.00,Acu-Link.com,2013-05-28 10:58:00,
2013-05-28 07:13:00,40.6,39.3,30.21,NNW,337,2.7,-999.0,95,-99.99,,,0.00,Acu-Link.com,2013-05-28 11:13:00,
2013-05-28 07:28:00,42.8,40.6,30.21,NNE,22,2.2,-999.0,92,-99.99,,,0.00,Acu-Link.com,2013-05-28 11:28:00,
2013-05-28 07:44:00,45.1,42.3,30.20,NNE,22,2.2,-999.0,90,-99.99,,,0.00,Acu-Link.com,2013-05-28 11:44:00,
2013-05-28 07:59:00,47.3,43.0,30.21,NE,45,0.0,-999.0,85,-99.99,,,0.00,Acu-Link.com,2013-05-28 11:59:00,
2013-05-28 08:14:00,50.2,45.2,30.20,NE,45,1.7,-999.0,83,-99.99,,,0.00,Acu-Link.com,2013-05-28 12:14:00,
2013-05-28 08:29:00,52.7,46.4,30.20,North,0,2.2,-999.0,79,-99.99,,,0.00,Acu-Link.com,2013-05-28 12:29:00,
2013-05-28 08:44:00,54.0,46.3,30.19,SSE,157,1.7,-999.0,75,-99.99,,,0.00,Acu-Link.com,2013-05-28 12:44:00,
2013-05-28 09:00:00,55.9,45.9,30.19,SSE,157,2.2,-999.0,69,-99.99,,,0.00,Acu-Link.com,2013-05-28 13:00:00,
2013-05-28 09:15:00,57.6,44.7,30.19,SW,225,1.7,-999.0,62,-99.99,,,0.00,Acu-Link.com,2013-05-28 13:15:00,
2013-05-28 09:30:00,59.4,44.6,30.18,North,0,4.2,-999.0,58,-99.99,,,0.00,Acu-Link.com,2013-05-28 13:30:00,
2013-05-28 09:45:00,61.0,44.2,30.18,NNW,337,0.0,-999.0,54,-99.99,,,0.00,Acu-Link.com,2013-05-28 13:45:00,
2013-05-28 10:01:00,62.6,43.2,30.19,North,0,3.7,-999.0,49,-99.99,,,0.00,Acu-Link.com,2013-05-28 14:01:00,
2013-05-28 10:16:00,64.0,40.4,30.19,North,0,4.7,-999.0,42,-99.99,,,0.00,Acu-Link.com,2013-05-28 14:16:00,
2013-05-28 10:31:00,64.2,40.0,30.19,SE,135,0.0,-999.0,41,-99.99,,,0.00,Acu-Link.com,2013-05-28 14:31:00,
2013-05-28 10:46:00,64.6,39.7,30.19,ESE,112,1.7,-999.0,40,-99.99,,,0.00,Acu-Link.com,2013-05-28 14:46:00,
2013-05-28 11:01:00,65.5,39.9,30.19,North,0,2.7,-999.0,39,-99.99,,,0.00,Acu-Link.com,2013-05-28 15:01:00,
2013-05-28 11:17:00,66.2,41.8,30.19,North,0,2.7,-999.0,41,-99.99,,,0.00,Acu-Link.com,2013-05-28 15:17:00,
2013-05-28 11:32:00,67.1,42.0,30.19,SSW,202,1.1,-999.0,40,-99.99,,,0.00,Acu-Link.com,2013-05-28 15:32:00,
2013-05-28 11:47:00,68.0,41.4,30.19,NNW,337,1.7,-999.0,38,-99.99,,,0.00,Acu-Link.com,2013-05-28 15:47:00,
2013-05-28 12:03:00,67.3,42.1,30.18,ENE,67,2.2,-999.0,40,-99.99,,,0.00,Acu-Link.com,2013-05-28 16:03:00,
2013-05-28 12:18:00,68.2,42.9,30.18,ESE,112,1.1,-999.0,40,-99.99,,,0.00,Acu-Link.com,2013-05-28 16:18:00,
2013-05-28 12:33:00,69.6,41.5,30.17,NNE,22,2.2,-999.0,36,-99.99,,,0.00,Acu-Link.com,2013-05-28 16:33:00,
2013-05-28 12:48:00,69.1,41.0,30.17,NNW,337,4.7,-999.0,36,-99.99,,,0.00,Acu-Link.com,2013-05-28 16:48:00,
2013-05-28 13:04:00,68.2,40.9,30.16,North,0,4.7,-999.0,37,-99.99,,,0.00,Acu-Link.com,2013-05-28 17:04:00,
2013-05-28 13:19:00,70.3,42.1,30.15,NNW,337,3.2,-999.0,36,-99.99,,,0.00,Acu-Link.com,2013-05-28 17:19:00,
2013-05-28 13:34:00,70.5,43.7,30.15,NNE,22,2.2,-999.0,38,-99.99,,,0.00,Acu-Link.com,2013-05-28 17:34:00,
2013-05-28 13:49:00,70.0,43.2,30.14,West,270,2.7,-999.0,38,-99.99,,,0.00,Acu-Link.com,2013-05-28 17:49:00,
2013-05-28 14:04:00,69.3,43.9,30.14,North,0,2.7,-999.0,40,-99.99,,,0.00,Acu-Link.com,2013-05-28 18:04:00,
2013-05-28 14:20:00,70.2,42.7,30.14,NE,45,1.1,-999.0,37,-99.99,,,0.00,Acu-Link.com,2013-05-28 18:20:00,
2013-05-28 14:35:00,70.3,42.8,30.13,NW,315,2.7,-999.0,37,-99.99,,,0.00,Acu-Link.com,2013-05-28 18:35:00,
2013-05-28 14:50:00,69.1,41.0,30.13,ESE,112,5.3,-999.0,36,-99.99,,,0.00,Acu-Link.com,2013-05-28 18:50:00,
2013-05-28 15:05:00,72.7,43.5,30.13,North,0,2.7,-999.0,35,-99.99,,,0.00,Acu-Link.com,2013-05-28 19:05:00,
2013-05-28 15:21:00,74.5,44.3,30.12,WSW,247,0.0,-999.0,34,-99.99,,,0.00,Acu-Link.com,2013-05-28 19:21:00,
2013-05-28 15:36:00,72.7,42.7,30.12,South,180,1.1,-999.0,34,-99.99,,,0.00,Acu-Link.com,2013-05-28 19:36:00,
2013-05-28 15:51:00,71.1,43.5,30.12,NNW,337,0.0,-999.0,37,-99.99,,,0.00,Acu-Link.com,2013-05-28 19:51:00,
2013-05-28 16:06:00,71.2,45.0,30.11,ESE,112,0.0,-999.0,39,-99.99,,,0.00,Acu-Link.com,2013-05-28 20:06:00,
2013-05-28 16:21:00,70.2,42.0,30.11,NNE,22,4.2,-999.0,36,-99.99,,,0.00,Acu-Link.com,2013-05-28 20:21:00,
2013-05-28 16:36:00,70.3,42.1,30.11,West,270,0.0,-999.0,36,-99.99,,,0.00,Acu-Link.com,2013-05-28 20:36:00,
2013-05-28 16:51:00,70.9,39.6,30.11,West,270,0.0,-999.0,32,-99.99,,,0.00,Acu-Link.com,2013-05-28 20:51:00,
2013-05-28 17:07:00,70.3,41.3,30.10,West,270,1.7,-999.0,35,-99.99,,,0.00,Acu-Link.com,2013-05-28 21:07:00,
2013-05-28 17:22:00,70.0,41.8,30.10,NW,315,1.7,-999.0,36,-99.99,,,0.00,Acu-Link.com,2013-05-28 21:22:00,
2013-05-28 17:37:00,70.0,41.8,30.10,NNE,22,2.2,-999.0,36,-99.99,,,0.00,Acu-Link.com,2013-05-28 21:37:00,
2013-05-28 17:52:00,69.3,43.3,30.09,WSW,247,0.0,-999.0,39,-99.99,,,0.00,Acu-Link.com,2013-05-28 21:52:00,
2013-05-28 18:08:00,68.7,43.4,30.09,East,90,0.0,-999.0,40,-99.99,,,0.00,Acu-Link.com,2013-05-28 22:08:00,
2013-05-28 18:23:00,68.5,43.9,30.09,North,0,3.2,-999.0,41,-99.99,,,0.00,Acu-Link.com,2013-05-28 22:23:00,
2013-05-28 18:38:00,67.5,44.2,30.10,North,0,4.7,-999.0,43,-99.99,,,0.00,Acu-Link.com,2013-05-28 22:38:00,
2013-05-28 18:54:00,66.9,44.3,30.09,North,0,1.1,-999.0,44,-99.99,,,0.00,Acu-Link.com,2013-05-28 22:54:00,
2013-05-28 19:09:00,66.0,44.0,30.10,North,0,0.0,-999.0,45,-99.99,,,0.00,Acu-Link.com,2013-05-28 23:09:00,
2013-05-28 19:24:00,64.9,44.2,30.10,South,180,1.7,-999.0,47,-99.99,,,0.00,Acu-Link.com,2013-05-28 23:24:00,
2013-05-28 19:39:00,63.9,44.4,30.10,SSE,157,1.7,-999.0,49,-99.99,,,0.00,Acu-Link.com,2013-05-28 23:39:00,
2013-05-28 19:54:00,62.6,44.2,30.10,SSE,157,0.0,-999.0,51,-99.99,,,0.00,Acu-Link.com,2013-05-28 23:54:00,
2013-05-28 20:10:00,62.1,44.8,30.11,NW,315,1.7,-999.0,53,-99.99,,,0.00,Acu-Link.com,2013-05-29 00:10:00,
2013-05-28 20:25:00,61.2,44.9,30.11,NNW,337,1.7,-999.0,55,-99.99,,,0.00,Acu-Link.com,2013-05-29 00:25:00,
2013-05-28 20:40:00,60.3,44.5,30.11,NNE,22,2.7,-999.0,56,-99.99,,,0.00,Acu-Link.com,2013-05-29 00:40:00,
2013-05-28 20:55:00,59.7,44.0,30.12,North,0,2.2,-999.0,56,-99.99,,,0.00,Acu-Link.com,2013-05-29 00:55:00,
2013-05-28 21:11:00,59.0,43.3,30.12,SSE,157,0.0,-999.0,56,-99.99,,,0.00,Acu-Link.com,2013-05-29 01:11:00,
2013-05-28 21:26:00,58.1,43.4,30.13,SSW,202,1.1,-999.0,58,-99.99,,,0.00,Acu-Link.com,2013-05-29 01:26:00,
2013-05-28 21:41:00,57.4,43.6,30.13,SSE,157,0.0,-999.0,60,-99.99,,,0.00,Acu-Link.com,2013-05-29 01:41:00,
2013-05-28 21:57:00,56.8,44.3,30.14,South,180,0.0,-999.0,63,-99.99,,,0.00,Acu-Link.com,2013-05-29 01:57:00,
2013-05-28 22:12:00,56.5,44.9,30.13,South,180,0.0,-999.0,65,-99.99,,,0.00,Acu-Link.com,2013-05-29 02:12:00,
2013-05-28 22:27:00,55.9,43.9,30.13,SW,225,1.7,-999.0,64,-99.99,,,0.00,Acu-Link.com,2013-05-29 02:27:00,
2013-05-28 22:42:00,55.8,43.8,30.12,South,180,0.0,-999.0,64,-99.99,,,0.00,Acu-Link.com,2013-05-29 02:42:00,
2013-05-28 22:58:00,55.4,43.0,30.12,SSE,157,1.1,-999.0,63,-99.99,,,0.00,Acu-Link.com,2013-05-29 02:58:00,
2013-05-28 23:13:00,55.0,43.5,30.12,SE,135,0.0,-999.0,65,-99.99,,,0.00,Acu-Link.com,2013-05-29 03:13:00,
2013-05-28 23:28:00,54.7,43.6,30.13,SSW,202,1.7,-999.0,66,-99.99,,,0.00,Acu-Link.com,2013-05-29 03:28:00,
2013-05-28 23:44:00,54.7,43.6,30.12,South,180,0.0,-999.0,66,-99.99,,,0.00,Acu-Link.com,2013-05-29 03:44:00,
2013-05-28 23:59:00,54.7,44.3,30.12,South,180,0.0,-999.0,68,-99.99,,,0.00,Acu-Link.com,2013-05-29 03:59:00,